Time;durP1;ratioP1;P1;durP2;ratioP2;P2;SDS_P1;SDS_P2;PMS_P1;PMS_P2;Temp;Humidity;BMP_temperature;BMP_pressure;BME280_temperature;BME280_humidity;BME280_pressure;Samples;Min_cycle;Max_cycle;Signal;HPM_P1;HPM_P2
2021/10/23 00:01:00;;;;;;;16.57;13.67;;;;;;;13.58;91.59;95221.91;5053769;28;20473;-84
2021/10/23 00:03:27;;;;;;;19.10;13.97;;;;;;;13.60;91.66;95220.00;5053686;28;20474;-84
2021/10/23 00:05:54;;;;;;;14.83;11.93;;;;;;;13.55;92.37;95206.38;5053461;28;20441;-84
2021/10/23 00:08:21;;;;;;;20.07;12.77;;;;;;;13.61;91.88;95219.03;5053709;28;20433;-84
2021/10/23 00:10:48;;;;;;;17.07;12.07;;;;;;;13.63;92.04;95217.06;5053534;28;20433;-84
2021/10/23 00:13:15;;;;;;;14.10;11.83;;;;;;;13.61;92.01;95213.75;5054003;28;20611;-84
2021/10/23 00:15:42;;;;;;;16.50;13.00;;;;;;;13.62;91.99;95219.84;5053437;28;20464;-84
2021/10/23 00:21:41;;;;;;;16.77;11.77;;;;;;;13.54;92.27;95207.34;5053388;28;20864;-84
2021/10/23 00:24:08;;;;;;;16.03;11.70;;;;;;;13.49;91.95;95203.47;5053289;28;20439;-84
2021/10/23 00:26:35;;;;;;;14.40;11.30;;;;;;;13.47;92.26;95200.97;5053247;28;20442;-84
2021/10/23 00:29:02;;;;;;;18.53;12.43;;;;;;;13.47;92.54;95203.59;5053328;28;20433;-84
2021/10/23 00:31:29;;;;;;;13.93;11.37;;;;;;;13.50;92.58;95197.22;5053769;28;20465;-84
2021/10/23 00:33:56;;;;;;;13.43;10.97;;;;;;;13.52;91.98;95195.28;5053461;28;20974;-84
2021/10/23 00:36:23;;;;;;;15.50;11.70;;;;;;;13.58;92.46;95198.19;5053112;28;20434;-84
2021/10/23 00:38:52;;;;;;;12.90;11.60;;;;;;;13.62;91.94;95202.22;5053058;28;20431;-84
2021/10/23 00:41:19;;;;;;;13.47;12.07;;;;;;;13.66;91.54;95202.75;5053379;28;20470;-84
2021/10/23 00:43:47;;;;;;;15.60;11.20;;;;;;;13.66;91.04;95201.94;5052638;28;20439;-84
2021/10/23 00:46:16;;;;;;;16.47;10.97;;;;;;;13.62;91.62;95204.84;5053401;28;20435;-84
2021/10/23 00:48:44;;;;;;;13.70;11.30;;;;;;;13.64;91.22;95208.19;5018070;28;20448;-85
2021/10/23 00:51:11;;;;;;;11.63;10.40;;;;;;;13.63;91.57;95198.59;5053599;28;20439;-84
2021/10/23 00:53:39;;;;;;;15.43;12.33;;;;;;;13.59;91.80;95197.22;5053010;28;20436;-84
2021/10/23 00:56:08;;;;;;;13.13;11.73;;;;;;;13.61;91.99;95195.28;5053786;28;20461;-85
2021/10/23 00:58:34;;;;;;;16.70;11.50;;;;;;;13.68;91.76;95189.44;5053340;28;20765;-84
2021/10/23 01:11:18;;;;;;;15.40;12.50;;;;;;;13.59;91.82;95180.59;5053090;28;20431;-83
2021/10/23 01:13:44;;;;;;;14.90;13.00;;;;;;;13.58;91.61;95173.63;5052625;28;20464;-84
2021/10/23 01:16:14;;;;;;;15.60;12.83;;;;;;;13.51;92.09;95181.25;5052152;28;20451;-84
2021/10/23 01:18:44;;;;;;;16.57;12.10;;;;;;;13.49;91.98;95190.28;5052169;28;20453;-84
2021/10/23 01:21:12;;;;;;;20.97;14.10;;;;;;;13.43;92.16;95189.06;5052346;28;20481;-84
2021/10/23 01:23:39;;;;;;;18.50;14.30;;;;;;;13.37;92.81;95181.72;5052447;28;20453;-84
2021/10/23 01:26:06;;;;;;;17.07;13.80;;;;;;;13.37;92.86;95176.44;5052466;28;20454;-84
2021/10/23 01:28:33;;;;;;;17.03;13.57;;;;;;;13.40;93.66;95189.34;5053674;28;20434;-84
2021/10/23 01:31:00;;;;;;;21.70;12.87;;;;;;;13.39;93.00;95184.19;5053544;28;20452;-84
2021/10/23 01:33:27;;;;;;;16.63;13.20;;;;;;;13.43;92.98;95183.78;5053059;28;20483;-84
2021/10/23 01:35:54;;;;;;;24.47;15.27;;;;;;;13.40;92.75;95178.78;5018269;28;20448;-84
2021/10/23 01:38:22;;;;;;;15.87;13.87;;;;;;;13.41;92.69;95187.53;5053903;28;20517;-84
2021/10/23 01:40:49;;;;;;;16.20;14.07;;;;;;;13.40;92.71;95197.25;5052528;28;20474;-84
2021/10/23 01:43:16;;;;;;;14.67;12.97;;;;;;;13.40;92.48;95194.59;5053345;28;20782;-84
2021/10/23 01:45:43;;;;;;;15.87;13.73;;;;;;;13.37;92.49;95202.78;5052572;28;20438;-84
2021/10/23 01:48:10;;;;;;;19.00;12.40;;;;;;;13.35;92.79;95191.56;5018268;28;20496;-84
2021/10/23 01:50:37;;;;;;;16.13;13.53;;;;;;;13.31;92.42;95191.00;5017800;28;20474;-84
2021/10/23 01:53:04;;;;;;;19.63;14.07;;;;;;;13.30;92.98;95180.59;5053341;28;20430;-84
2021/10/23 01:55:32;;;;;;;15.60;13.20;;;;;;;13.28;92.55;95182.53;5054977;28;20434;-85
2021/10/23 01:57:59;;;;;;;18.87;13.60;;;;;;;13.26;92.87;95187.09;5056047;28;20918;-85
2021/10/23 02:00:26;;;;;;;17.87;14.80;;;;;;;13.20;92.41;95179.75;5056484;28;20465;-84
2021/10/23 02:02:53;;;;;;;15.80;13.60;;;;;;;13.17;92.81;95180.00;5056059;28;20525;-85
2021/10/23 02:05:20;;;;;;;18.80;13.73;;;;;;;13.09;93.20;95171.97;5056053;28;20434;-84
2021/10/23 02:07:47;;;;;;;23.73;15.83;;;;;;;13.06;93.41;95178.34;5055052;28;20458;-84
2021/10/23 02:10:14;;;;;;;17.80;12.70;;;;;;;13.08;93.86;95178.22;5055817;28;20486;-84
2021/10/23 02:12:43;;;;;;;19.27;14.57;;;;;;;13.06;93.74;95193.31;5055941;28;20461;-84
2021/10/23 02:15:10;;;;;;;15.40;13.40;;;;;;;13.03;93.15;95194.44;5021295;28;20434;-84
2021/10/23 02:17:38;;;;;;;19.87;12.67;;;;;;;13.05;93.59;95197.75;5055624;28;20806;-84
2021/10/23 02:20:07;;;;;;;14.83;12.80;;;;;;;13.03;93.91;95205.81;5056432;28;20452;-84
2021/10/23 02:36:21;;;;;;;18.10;13.03;;;;;;;12.93;94.13;95220.75;5055346;28;20490;-84
2021/10/23 02:38:49;;;;;;;18.07;13.37;;;;;;;12.90;94.14;95222.81;5055312;28;20431;-84
2021/10/23 02:41:17;;;;;;;15.03;12.57;;;;;;;12.88;94.35;95230.88;5055411;28;20482;-83
2021/10/23 02:43:44;;;;;;;21.33;13.20;;;;;;;12.88;94.01;95224.75;5055465;28;20480;-83
2021/10/23 02:46:11;;;;;;;16.17;12.23;;;;;;;12.86;94.00;95234.59;5037019;28;20435;-84
2021/10/23 02:48:38;;;;;;;16.73;13.57;;;;;;;12.85;94.24;95228.50;5055720;28;20981;-84
2021/10/23 02:51:05;;;;;;;16.87;13.10;;;;;;;12.83;94.19;95227.81;5055259;28;20426;-83
2021/10/23 02:53:39;;;;;;;16.33;12.33;;;;;;;12.85;94.42;95225.88;5055501;28;20434;-84
2021/10/23 02:56:06;;;;;;;17.90;13.07;;;;;;;12.84;93.94;95234.75;5020364;28;20445;-84
2021/10/23 02:58:33;;;;;;;15.43;12.57;;;;;;;12.81;93.92;95235.00;5055164;28;20441;-84
2021/10/23 03:01:00;;;;;;;13.80;11.93;;;;;;;12.81;93.98;95224.47;5054866;28;20484;-84
2021/10/23 03:03:27;;;;;;;15.60;13.40;;;;;;;12.74;93.80;95231.25;5054706;28;20456;-84
2021/10/23 03:05:57;;;;;;;17.37;12.33;;;;;;;12.69;94.26;95229.00;5054741;28;20434;-84
2021/10/23 03:08:24;;;;;;;14.23;11.20;;;;;;;12.69;94.43;95234.28;5054946;28;20438;-84
2021/10/23 03:10:52;;;;;;;18.60;13.07;;;;;;;12.64;95.03;95225.13;5055602;28;20493;-84
2021/10/23 03:13:19;;;;;;;15.40;12.30;;;;;;;12.66;94.42;95223.19;5036368;28;20449;-84
2021/10/23 03:15:46;;;;;;;14.67;12.80;;;;;;;12.68;94.47;95229.16;5054975;28;20440;-84
2021/10/23 03:18:13;;;;;;;14.67;12.50;;;;;;;12.68;94.29;95215.97;5054767;28;20492;-84
2021/10/23 03:20:40;;;;;;;14.77;12.40;;;;;;;12.70;94.43;95225.41;5054530;28;21035;-84
2021/10/23 03:23:07;;;;;;;15.97;11.97;;;;;;;12.71;93.90;95220.97;5054504;28;20425;-84
2021/10/23 03:25:34;;;;;;;14.90;12.53;;;;;;;12.71;93.82;95219.16;5054285;28;20922;-83
2021/10/23 03:28:02;;;;;;;14.65;12.40;;;;;;;12.75;94.19;95222.41;5019019;28;20769;-84
2021/10/23 03:30:30;;;;;;;18.10;11.70;;;;;;;12.78;93.55;95219.50;5036289;28;20567;-84
2021/10/23 03:32:56;;;;;;;14.63;11.77;;;;;;;12.78;93.34;95222.13;5054961;28;20444;-84
2021/10/23 03:35:23;;;;;;;13.90;12.37;;;;;;;12.79;93.10;95221.16;5055512;28;20484;-84
2021/10/23 03:37:50;;;;;;;16.93;11.90;;;;;;;12.79;93.42;95230.84;5054086;28;20440;-84
2021/10/23 03:40:17;;;;;;;12.37;11.07;;;;;;;12.77;92.99;95225.72;5054555;28;20802;-84
2021/10/23 03:42:44;;;;;;;14.47;11.13;;;;;;;12.73;93.58;95219.06;5019426;28;20446;-84
2021/10/23 03:45:13;;;;;;;18.80;11.27;;;;;;;12.73;94.09;95224.34;5053947;28;20428;-84
2021/10/23 03:47:40;;;;;;;13.63;11.30;;;;;;;12.72;93.45;95235.81;5053893;28;20470;-84
2021/10/23 03:50:09;;;;;;;18.50;11.77;;;;;;;12.74;94.06;95241.78;5053832;28;20426;-84
2021/10/23 03:52:36;;;;;;;15.33;10.83;;;;;;;12.63;94.10;95255.88;5054275;28;20627;-84
2021/10/23 03:55:04;;;;;;;21.13;15.47;;;;;;;12.32;95.52;95252.44;5054245;28;20458;-84
2021/10/23 03:57:31;;;;;;;16.97;14.90;;;;;;;12.28;95.72;95244.94;5053701;28;20431;-84
2021/10/23 03:59:58;;;;;;;16.27;13.73;;;;;;;12.15;96.12;95250.44;5054282;28;20445;-84
2021/10/23 04:02:26;;;;;;;20.53;14.43;;;;;;;12.23;95.70;95262.91;5053743;28;20576;-84
2021/10/23 04:04:53;;;;;;;14.83;12.50;;;;;;;12.28;96.59;95256.28;5054045;28;20442;-84
2021/10/23 04:07:20;;;;;;;49.90;32.30;;;;;;;12.32;96.33;95247.16;5053558;28;20442;-84
2021/10/23 04:09:47;;;;;;;22.40;20.03;;;;;;;12.33;95.90;95255.91;5054257;28;20549;-84
2021/10/23 04:12:14;;;;;;;16.87;14.90;;;;;;;12.22;94.88;95254.19;5053687;28;20433;-84
2021/10/23 04:14:41;;;;;;;20.50;14.90;;;;;;;12.14;95.85;95248.72;5053515;28;20426;-85
2021/10/23 04:17:08;;;;;;;22.27;13.60;;;;;;;12.17;96.47;95250.28;5053444;28;21076;-84
2021/10/23 04:19:36;;;;;;;22.00;14.63;;;;;;;12.17;96.02;95245.88;5053619;28;20813;-84
2021/10/23 04:22:04;;;;;;;22.77;15.50;;;;;;;12.20;96.36;95245.59;5053698;28;20478;-84
2021/10/23 04:24:31;;;;;;;20.20;15.27;;;;;;;12.24;95.12;95252.25;5035447;28;20445;-85
2021/10/23 04:26:58;;;;;;;20.13;15.80;;;;;;;12.27;95.54;95246.75;5053653;28;20526;-84
2021/10/23 04:29:25;;;;;;;26.53;17.80;;;;;;;12.25;95.77;95250.47;5053808;28;20526;-84
2021/10/23 04:31:52;;;;;;;24.80;16.17;;;;;;;12.23;95.73;95247.97;5054100;28;20944;-84
2021/10/23 04:34:18;;;;;;;19.60;15.20;;;;;;;12.26;95.22;95252.13;5034572;28;20470;-84
2021/10/23 04:36:47;;;;;;;18.17;14.50;;;;;;;12.31;95.41;95256.03;5053527;28;20867;-84
2021/10/23 04:39:15;;;;;;;17.10;13.10;;;;;;;12.35;94.85;95252.16;5053774;28;20513;-84
2021/10/23 04:41:43;;;;;;;20.47;13.40;;;;;;;12.39;94.78;95252.72;5053207;28;20997;-84
2021/10/23 04:44:09;;;;;;;13.83;12.40;;;;;;;12.42;94.63;95249.84;5053450;28;20446;-84
2021/10/23 04:46:36;;;;;;;15.00;11.90;;;;;;;12.46;94.89;95253.06;5052176;28;20441;-84
2021/10/23 04:49:03;;;;;;;18.33;12.90;;;;;;;12.45;95.12;95251.41;5053273;28;20456;-84
2021/10/23 04:51:30;;;;;;;18.20;11.97;;;;;;;12.50;94.94;95249.19;5053073;28;20441;-85
2021/10/23 04:53:59;;;;;;;16.17;12.17;;;;;;;12.52;94.78;95257.78;5053549;28;20445;-84
2021/10/23 04:56:26;;;;;;;15.20;11.20;;;;;;;12.52;94.37;95261.25;5035322;28;20455;-83
2021/10/23 04:58:53;;;;;;;14.13;11.13;;;;;;;12.53;95.15;95260.28;5053488;28;20763;-84
2021/10/23 05:01:20;;;;;;;13.83;12.20;;;;;;;12.56;94.88;95261.81;5053005;28;20481;-84
2021/10/23 05:03:47;;;;;;;16.83;11.87;;;;;;;12.56;93.84;95257.38;5053144;28;20449;-84
2021/10/23 05:06:14;;;;;;;15.53;12.90;;;;;;;12.63;94.32;95270.84;5052936;28;20933;-84
2021/10/23 05:08:41;;;;;;;14.87;12.10;;;;;;;12.71;94.51;95268.38;5034870;28;20448;-81
2021/10/23 05:11:10;;;;;;;20.83;13.33;;;;;;;12.73;95.72;95263.81;5053472;28;20439;-83
2021/10/23 05:13:37;;;;;;;21.13;12.53;;;;;;;12.82;93.98;95273.53;5052694;28;20433;-84
2021/10/23 05:16:05;;;;;;;20.53;12.27;;;;;;;12.87;93.70;95287.16;5053539;28;20883;-84
2021/10/23 05:18:32;;;;;;;14.70;10.83;;;;;;;12.87;92.55;95287.16;5053018;28;20906;-84
2021/10/23 05:20:59;;;;;;;11.83;10.73;;;;;;;12.90;92.45;95291.31;5052728;28;20517;-84
2021/10/23 05:23:26;;;;;;;15.00;11.70;;;;;;;12.94;92.41;95296.16;5052714;28;20885;-84
2021/10/23 05:25:53;;;;;;;24.00;12.00;;;;;;;12.96;91.92;95307.41;5052709;28;20944;-84
2021/10/23 05:28:22;;;;;;;17.40;11.20;;;;;;;12.97;92.46;95303.78;5018187;28;20445;-84
2021/10/23 05:30:49;;;;;;;15.33;11.47;;;;;;;12.99;92.32;95307.13;5054925;28;20456;-84
2021/10/23 05:33:16;;;;;;;14.90;11.43;;;;;;;13.00;91.81;95307.97;5038195;28;20604;-84
2021/10/23 05:35:42;;;;;;;13.10;10.73;;;;;;;13.02;91.78;95312.16;5056820;28;20969;-84
2021/10/23 05:38:09;;;;;;;14.10;11.07;;;;;;;13.10;91.38;95326.44;5056097;28;20537;-84
2021/10/23 05:47:21;;;;;;;22.63;14.30;;;;;;;12.86;93.86;95324.16;5056385;28;20397;-84
2021/10/23 05:49:48;;;;;;;14.27;12.30;;;;;;;13.11;94.23;95328.13;5056564;28;20438;-84
2021/10/23 05:52:15;;;;;;;21.63;14.00;;;;;;;13.67;91.77;95332.81;5056429;28;20446;-84
2021/10/23 05:54:42;;;;;;;20.90;15.03;;;;;;;14.17;88.15;95334.34;5056518;28;20427;-83
2021/10/23 05:57:10;;;;;;;22.63;16.70;;;;;;;14.66;85.58;95342.16;5056498;28;20525;-84
2021/10/23 05:59:41;;;;;;;23.03;15.53;;;;;;;15.04;83.42;95338.56;5056376;28;20429;-84
2021/10/23 06:02:23;;;;;;;19.33;15.97;;;;;;;15.04;81.75;95349.97;5055777;28;20469;-83
2021/10/23 06:04:54;;;;;;;21.73;17.40;;;;;;;15.06;81.24;95353.28;5055985;28;20950;-84
2021/10/23 06:07:22;;;;;;;23.43;17.70;;;;;;;15.08;81.40;95348.69;5056242;28;20426;-83
2021/10/23 06:09:49;;;;;;;24.30;16.40;;;;;;;15.06;80.87;95347.19;5055896;28;21002;-84
2021/10/23 06:12:16;;;;;;;25.63;17.53;;;;;;;14.84;81.92;95343.91;5056180;28;20444;-84
2021/10/23 06:14:44;;;;;;;21.60;17.30;;;;;;;14.81;81.96;95360.06;5055669;28;20945;-84
2021/10/23 06:17:11;;;;;;;30.10;19.30;;;;;;;14.63;82.67;95356.50;5056054;28;20434;-84
2021/10/23 06:19:39;;;;;;;27.13;20.30;;;;;;;14.47;83.60;95356.28;5037590;28;20438;-84
2021/10/23 06:22:07;;;;;;;36.43;24.13;;;;;;;14.33;84.33;95365.41;5055584;28;20481;-85
2021/10/23 06:24:35;;;;;;;56.93;32.93;;;;;;;14.10;85.91;95364.88;5055957;28;20880;-83
2021/10/23 06:27:02;;;;;;;77.23;38.20;;;;;;;14.12;86.37;95373.50;5055747;28;20430;-83
2021/10/23 06:29:30;;;;;;;58.63;34.70;;;;;;;14.12;86.48;95378.75;5055700;28;20910;-83
2021/10/23 06:31:57;;;;;;;50.10;29.73;;;;;;;14.20;87.52;95376.28;5055912;28;20511;-83
2021/10/23 06:34:23;;;;;;;57.37;32.27;;;;;;;14.46;87.59;95371.28;5055603;28;20470;-84
2021/10/23 06:36:51;;;;;;;47.50;27.13;;;;;;;14.72;86.38;95371.47;5055515;28;20433;-84
2021/10/23 06:39:19;;;;;;;41.33;25.73;;;;;;;14.88;84.92;95377.00;5055781;28;20450;-84
2021/10/23 06:41:46;;;;;;;36.37;25.30;;;;;;;15.03;85.11;95381.81;5054590;28;20466;-84
2021/10/23 06:44:13;;;;;;;37.47;23.77;;;;;;;15.16;84.24;95384.97;5055757;28;20870;-86
2021/10/23 06:46:41;;;;;;;29.73;20.13;;;;;;;15.27;83.07;95386.56;5055040;28;20449;-84
2021/10/23 06:49:09;;;;;;;45.53;26.03;;;;;;;15.28;83.64;95390.88;5055365;28;20812;-85
2021/10/23 06:51:37;;;;;;;35.77;26.37;;;;;;;15.30;83.50;95387.09;5055274;28;20441;-83
2021/10/23 06:54:05;;;;;;;40.27;26.27;;;;;;;15.26;83.87;95385.75;5055531;28;20446;-82
2021/10/23 06:56:33;;;;;;;39.10;26.43;;;;;;;15.20;83.90;95391.63;5055219;28;20443;-84
2021/10/23 06:59:00;;;;;;;43.30;25.63;;;;;;;15.17;83.85;95381.34;5055289;28;20461;-84
2021/10/23 07:01:27;;;;;;;40.23;24.30;;;;;;;15.09;84.78;95391.81;5054878;28;20917;-84
2021/10/23 07:03:55;;;;;;;37.77;23.57;;;;;;;15.15;84.81;95394.69;5055045;28;20993;-84
2021/10/23 07:06:22;;;;;;;30.20;21.57;;;;;;;15.22;85.46;95389.66;5054924;28;20984;-85
2021/10/23 07:08:50;;;;;;;31.30;22.23;;;;;;;15.19;85.79;95398.72;5055353;28;20524;-86
2021/10/23 07:11:17;;;;;;;35.90;23.37;;;;;;;15.07;86.42;95391.13;5055264;28;20872;-85
2021/10/23 07:13:45;;;;;;;33.10;22.60;;;;;;;15.15;87.08;95402.63;5054983;28;20449;-84
2021/10/23 07:16:12;;;;;;;37.93;21.40;;;;;;;15.19;87.25;95401.38;5055331;28;20434;-83
2021/10/23 07:18:39;;;;;;;26.40;16.07;;;;;;;15.20;86.27;95404.84;5054998;28;20469;-83
2021/10/23 07:21:06;;;;;;;22.23;16.97;;;;;;;15.23;86.73;95409.00;5035666;28;20956;-83
2021/10/23 07:23:33;;;;;;;29.33;18.30;;;;;;;15.14;86.70;95419.47;5019115;28;20504;-83
2021/10/23 07:26:00;;;;;;;32.07;22.77;;;;;;;15.05;87.78;95408.94;5054254;28;20443;-83
2021/10/23 07:28:27;;;;;;;26.00;19.10;;;;;;;15.04;89.16;95407.28;5054511;28;20443;-83
2021/10/23 07:30:56;;;;;;;34.40;24.10;;;;;;;15.01;89.32;95410.19;5054064;28;20454;-83
2021/10/23 07:33:23;;;;;;;46.80;30.20;;;;;;;14.94;89.35;95406.47;5053501;28;20470;-82
2021/10/23 07:35:50;;;;;;;42.93;28.87;;;;;;;14.94;89.20;95403.81;5034658;28;20542;-83
2021/10/23 07:38:17;;;;;;;42.47;26.13;;;;;;;14.90;90.10;95405.09;4999868;28;20530;-83
2021/10/23 07:40:45;;;;;;;29.20;22.53;;;;;;;15.00;89.91;95405.88;5034572;28;20441;-82
2021/10/23 07:43:12;;;;;;;32.20;20.57;;;;;;;14.96;89.90;95407.97;5034336;28;20475;-83
2021/10/23 07:45:59;;;;;;;26.00;19.30;;;;;;;15.06;89.90;95410.63;5034653;28;20458;-83
2021/10/23 07:48:26;;;;;;;23.73;19.33;;;;;;;15.19;89.14;95405.81;5034302;28;20445;-82
2021/10/23 07:50:53;;;;;;;32.63;19.87;;;;;;;15.28;89.17;95417.31;5033829;28;20436;-82
2021/10/23 07:53:21;;;;;;;30.00;21.00;;;;;;;15.25;87.87;95420.25;5032954;28;20484;-81
2021/10/23 07:55:48;;;;;;;29.43;20.43;;;;;;;15.19;88.76;95416.38;4999507;28;20431;-82
2021/10/23 07:58:15;;;;;;;30.93;22.00;;;;;;;15.25;89.61;95426.38;5034015;28;20434;-82
2021/10/23 08:00:42;;;;;;;30.83;22.40;;;;;;;15.12;89.78;95428.53;5033740;28;20518;-82
2021/10/23 08:03:10;;;;;;;30.60;22.43;;;;;;;15.18;90.22;95430.59;5033905;28;20477;-83
2021/10/23 08:05:39;;;;;;;38.20;21.30;;;;;;;15.19;89.69;95432.25;5034566;28;20461;-82
2021/10/23 08:08:07;;;;;;;29.77;20.50;;;;;;;15.17;89.83;95431.56;5033614;28;20530;-82
2021/10/23 08:10:35;;;;;;;32.70;24.33;;;;;;;15.21;90.23;95435.59;5033577;28;20443;-83
2021/10/23 08:13:04;;;;;;;51.03;23.93;;;;;;;15.38;90.00;95431.34;5033552;28;20437;-83
2021/10/23 08:15:31;;;;;;;33.30;20.73;;;;;;;15.53;88.58;95427.22;5033713;28;20447;-82
2021/10/23 08:17:59;;;;;;;27.23;18.90;;;;;;;15.78;87.69;95431.03;5034294;28;20431;-82
2021/10/23 08:20:28;;;;;;;25.60;18.07;;;;;;;16.11;88.26;95427.72;5033625;28;20518;-78
2021/10/23 08:22:55;;;;;;;27.97;19.60;;;;;;;16.41;84.27;95436.28;5033130;28;20570;-78
2021/10/23 08:25:22;;;;;;;23.17;17.23;;;;;;;16.61;82.73;95436.97;5015267;28;20526;-80
2021/10/23 08:27:49;;;;;;;26.67;19.27;;;;;;;16.70;80.93;95447.50;5033677;28;20510;-81
2021/10/23 08:30:18;;;;;;;23.87;18.53;;;;;;;16.70;79.80;95457.25;5033672;28;20462;-80
2021/10/23 08:32:46;;;;;;;20.73;17.20;;;;;;;16.77;78.80;95457.47;5031739;28;20435;-81
2021/10/23 08:35:15;;;;;;;28.10;17.07;;;;;;;16.90;79.51;95448.13;5052765;28;20473;-80
2021/10/23 08:37:45;;;;;;;30.43;19.77;;;;;;;17.12;78.96;95446.81;5052912;28;20449;-81
2021/10/23 08:40:13;;;;;;;24.50;16.97;;;;;;;17.39;77.36;95455.56;5053178;28;20437;-81
2021/10/23 08:42:41;;;;;;;27.47;18.37;;;;;;;17.68;76.69;95444.63;5034623;28;20998;-80
2021/10/23 08:45:10;;;;;;;25.37;17.77;;;;;;;17.99;75.80;95451.03;5053317;28;20521;-80
2021/10/23 08:47:39;;;;;;;25.23;18.30;;;;;;;18.30;74.82;95438.00;5052885;28;20453;-80
2021/10/23 08:50:08;;;;;;;22.13;16.40;;;;;;;18.38;70.35;95447.78;5052784;28;20443;-79
2021/10/23 08:52:35;;;;;;;27.27;16.40;;;;;;;18.46;70.62;95445.97;5052478;28;20517;-81
2021/10/23 08:55:04;;;;;;;30.50;16.17;;;;;;;18.47;69.91;95439.66;5052782;28;20437;-81
2021/10/23 08:57:31;;;;;;;24.30;16.53;;;;;;;18.57;70.77;95447.50;5053188;28;20453;-81
2021/10/23 08:59:58;;;;;;;27.80;16.60;;;;;;;18.47;69.99;95438.81;5034750;28;20828;-82
2021/10/23 09:02:27;;;;;;;26.63;17.60;;;;;;;18.61;70.50;95445.34;5053379;28;20473;-82
2021/10/23 09:04:56;;;;;;;21.93;16.37;;;;;;;18.63;69.70;95443.38;5055174;28;20942;-81
2021/10/23 09:07:24;;;;;;;24.03;15.63;;;;;;;18.81;70.51;95447.53;5056962;28;20882;-82
2021/10/23 09:09:53;;;;;;;27.73;16.90;;;;;;;18.96;69.38;95445.00;5056793;28;20442;-82
2021/10/23 09:12:24;;;;;;;22.73;16.80;;;;;;;19.15;70.44;95442.00;5056672;28;20922;-81
2021/10/23 09:14:59;;;;;;;25.97;16.47;;;;;;;19.30;69.30;95451.94;5057014;28;20818;-81
2021/10/23 09:17:27;;;;;;;33.20;18.70;;;;;;;19.38;68.77;95446.63;5038947;28;21243;-81
2021/10/23 09:19:55;;;;;;;29.00;18.63;;;;;;;19.53;69.06;95438.75;5056723;28;20434;-80
2021/10/23 09:22:32;;;;;;;12.17;10.93;;;;;;;19.60;64.90;95439.75;5056663;28;20444;-81
2021/10/23 09:25:19;;;;;;;20.63;13.60;;;;;;;19.48;65.08;95434.78;5057271;28;20445;-81
2021/10/23 09:27:54;;;;;;;18.33;14.83;;;;;;;19.30;66.51;95444.78;5039360;28;20475;-81
2021/10/23 09:30:25;;;;;;;18.27;14.00;;;;;;;19.19;67.60;95440.66;5057325;28;20548;-85
2021/10/23 09:32:54;;;;;;;21.67;16.23;;;;;;;19.09;67.88;95442.69;5057420;28;20464;-82
2021/10/23 09:35:23;;;;;;;23.13;16.20;;;;;;;18.94;68.30;95440.88;5057883;28;20472;-82
2021/10/23 09:37:54;;;;;;;23.90;15.83;;;;;;;18.76;70.32;95438.38;5057087;28;20530;-81
2021/10/23 09:40:23;;;;;;;19.37;15.43;;;;;;;18.68;70.65;95446.34;5056600;28;20442;-80
2021/10/23 09:46:03;;;;;;;28.80;17.43;;;;;;;18.42;71.53;95441.97;5090850;27;20543;-79
2021/10/23 09:48:31;;;;;;;26.37;16.60;;;;;;;18.44;71.97;95440.00;5090971;28;20448;-80
2021/10/23 09:51:13;;;;;;;23.70;16.47;;;;;;;18.46;70.64;95434.50;5072399;28;20805;-81
2021/10/23 09:53:40;;;;;;;20.77;14.53;;;;;;;18.40;71.04;95430.69;5090529;28;21246;-82
2021/10/23 09:56:09;;;;;;;19.37;15.70;;;;;;;18.55;71.67;95433.53;5091331;28;20863;-81
2021/10/23 10:05:21;;;;;;;24.40;16.10;;;;;;;18.75;72.13;95431.38;5088347;28;20844;-81
2021/10/23 10:07:48;;;;;;;14.40;12.90;;;;;;;18.73;71.36;95431.56;5090652;28;20466;-81
2021/10/23 10:10:15;;;;;;;21.27;13.67;;;;;;;18.72;70.67;95439.69;5090392;28;20450;-81
2021/10/23 10:12:42;;;;;;;15.63;12.00;;;;;;;18.74;71.40;95429.72;5090206;28;20425;-81
2021/10/23 10:15:09;;;;;;;17.63;13.80;;;;;;;18.72;71.96;95424.59;5090879;28;20436;-83
2021/10/23 10:17:39;;;;;;;31.53;17.23;;;;;;;18.74;72.00;95421.75;5090305;28;20788;-84
2021/10/23 10:20:10;;;;;;;20.47;14.30;;;;;;;18.74;71.19;95427.06;5090149;28;20425;-84
2021/10/23 10:22:50;;;;;;;14.67;12.07;;;;;;;18.80;72.84;95418.44;5090353;28;20433;-84
2021/10/23 10:25:19;;;;;;;16.57;12.67;;;;;;;18.80;72.99;95413.97;5027295;28;20483;-85
2021/10/23 10:27:48;;;;;;;18.90;13.30;;;;;;;18.78;71.61;95417.75;5090492;28;20425;-85
2021/10/23 10:30:27;;;;;;;17.83;13.20;;;;;;;18.79;75.67;95414.09;5090663;28;20432;-85
2021/10/23 10:32:54;;;;;;;15.87;12.70;;;;;;;18.78;73.78;95415.09;5089862;28;20466;-84
2021/10/23 10:35:56;;;;;;;16.40;13.00;;;;;;;18.74;72.36;95417.25;5089920;28;20433;-83
2021/10/23 10:38:55;;;;;;;18.20;13.40;;;;;;;18.73;73.20;95430.72;5090168;28;20432;-80
2021/10/23 10:44:18;;;;;;;20.30;12.30;;;;;;;18.64;73.34;95423.75;5089779;28;20972;-83
2021/10/23 10:47:07;;;;;;;17.80;12.97;;;;;;;18.60;73.49;95425.06;5090035;28;20543;-83
2021/10/23 10:49:53;;;;;;;15.10;11.80;;;;;;;18.45;74.82;95423.03;5054355;28;20441;-85
2021/10/23 10:52:52;;;;;;;16.93;12.40;;;;;;;18.33;76.29;95421.72;5055265;28;20952;-84
2021/10/23 10:55:21;;;;;;;27.30;18.40;;;;;;;18.22;76.89;95427.38;5067541;28;20441;-87
2021/10/23 10:58:40;;;;;;;20.90;17.80;;;;;;;18.15;78.19;95427.16;5076502;28;20452;-87
2021/10/23 11:01:19;;;;;;;22.93;14.30;;;;;;;18.06;80.13;95422.00;5075879;28;20430;-84
2021/10/23 11:04:06;;;;;;;17.57;13.23;;;;;;;17.98;81.04;95424.66;5075885;28;20928;-84
2021/10/23 11:06:54;;;;;;;15.33;12.80;;;;;;;17.91;83.02;95422.63;5075658;28;20437;-83
2021/10/23 11:09:50;;;;;;;16.60;13.20;;;;;;;17.97;85.06;95421.16;5074914;28;20921;-83
2021/10/23 11:12:31;;;;;;;20.97;14.30;;;;;;;17.87;84.69;95421.28;5040947;28;20453;-83
2021/10/23 11:14:58;;;;;;;20.50;14.60;;;;;;;17.88;86.27;95432.75;5075539;28;20445;-83
2021/10/23 11:17:28;;;;;;;18.80;15.30;;;;;;;17.90;87.00;95431.59;5075873;28;20437;-82
2021/10/23 11:19:56;;;;;;;18.67;14.77;;;;;;;17.90;87.52;95425.44;5075826;28;20441;-83
2021/10/23 11:22:27;;;;;;;19.50;14.30;;;;;;;17.92;90.46;95426.94;5041030;28;20850;-83
2021/10/23 11:24:58;;;;;;;27.10;16.97;;;;;;;17.91;90.19;95424.44;5040644;28;20984;-83
2021/10/23 11:27:38;;;;;;;25.73;16.00;;;;;;;17.84;87.84;95432.22;5075689;28;20818;-82
2021/10/23 11:30:18;;;;;;;19.10;15.93;;;;;;;17.86;88.91;95430.25;5075666;28;20455;-83
2021/10/23 11:32:56;;;;;;;18.53;14.80;;;;;;;17.89;88.32;95427.25;5075294;28;20550;-82
2021/10/23 11:35:33;;;;;;;19.80;16.37;;;;;;;17.90;89.23;95436.88;5342652;22;20495;-82
2021/10/23 11:38:05;;;;;;;20.13;15.97;;;;;;;17.92;89.41;95426.94;5033462;28;20447;-82
2021/10/23 11:40:33;;;;;;;20.97;14.90;;;;;;;17.98;89.57;95422.00;5032794;28;20816;-82
2021/10/23 11:43:01;;;;;;;17.07;14.70;;;;;;;18.00;88.68;95431.47;5034335;28;20451;-82
2021/10/23 11:45:30;;;;;;;19.77;14.73;;;;;;;18.01;89.50;95427.81;5034692;28;20573;-81
2021/10/23 11:47:58;;;;;;;17.10;14.10;;;;;;;18.03;88.88;95419.69;5033955;28;20450;-81
2021/10/23 11:50:27;;;;;;;20.27;15.20;;;;;;;18.03;89.71;95414.38;5034595;28;20458;-82
2021/10/23 11:52:56;;;;;;;17.53;14.93;;;;;;;18.02;87.29;95423.34;5034183;28;20809;-82
2021/10/23 11:55:31;;;;;;;16.80;15.13;;;;;;;17.98;86.99;95422.00;5034357;28;21458;-83
2021/10/23 11:58:00;;;;;;;21.23;15.33;;;;;;;17.94;87.31;95416.19;5015928;28;20442;-82
2021/10/23 12:00:37;;;;;;;21.97;16.23;;;;;;;17.88;85.98;95422.94;5810295;23;20454;-80
2021/10/23 12:03:06;;;;;;;18.40;13.77;;;;;;;17.81;85.14;95427.25;4987738;28;20469;-81
